Terminal Aerodrome Forecast
Issued by NWS Tampa Bay Area, FL

Home | Current Version | Previous Version | Text Only | Print | Product List | Glossary On
Versions: 1 2 3 4 5 6 7 8 9
126
FTUS42 KTBW 231028 AAA
TAFFMY
TAF AMD
KFMY 231028Z 2310/2406 VRB03KT P6SM VCSH BKN030 OVC050
      TEMPO 2310/2312 2SM +RA BR SCT020 OVC030
     FM231500 06006KT P6SM VCSH SCT035 BKN050
     FM231800 31010KT P6SM VCTS SCT040CB BKN070
     FM240100 32006KT P6SM FEW030 BKN250=

USA.gov is the U.S. government's official web portal to all federal, state and local government web resources and services.